Time;durP1;ratioP1;P1;durP2;ratioP2;P2;SDS_P1;SDS_P2;PMS_P1;PMS_P2;Temp;Humidity;BMP_temperature;BMP_pressure;BME280_temperature;BME280_humidity;BME280_pressure;Samples;Min_cycle;Max_cycle;Signal;HPM_P1;HPM_P2
2023/06/23 00:01:46;;;;;;;1999.90;999.90;;;22.00;95.50;;;;;;5053017;28;20472;-71
2023/06/23 00:04:13;;;;;;;1999.90;999.90;;;22.10;95.60;;;;;;5054900;28;20041;-69
2023/06/23 00:06:41;;;;;;;1999.90;999.90;;;22.10;95.10;;;;;;5053740;28;20112;-74
2023/06/23 00:09:13;;;;;;;1999.90;999.90;;;22.20;94.60;;;;;;5050098;28;20487;-73
2023/06/23 00:11:42;;;;;;;1999.90;999.90;;;22.20;95.10;;;;;;5047839;28;20471;-71
2023/06/23 00:14:11;;;;;;;1999.90;999.90;;;22.40;94.60;;;;;;5046656;28;20025;-72
2023/06/23 00:16:39;;;;;;;1999.90;999.90;;;22.20;92.40;;;;;;5051099;28;20120;-71
2023/06/23 00:19:07;;;;;;;1999.90;999.90;;;21.70;92.50;;;;;;5047771;28;20024;-70
2023/06/23 00:21:34;;;;;;;1999.90;999.90;;;21.70;93.40;;;;;;5041699;28;20099;-71
2023/06/23 00:24:04;;;;;;;1999.90;999.90;;;21.50;92.20;;;;;;5044332;28;20028;-74
2023/06/23 00:26:33;;;;;;;1999.90;999.90;;;21.50;93.40;;;;;;5047071;28;20041;-68
2023/06/23 00:29:00;;;;;;;1999.90;999.90;;;21.80;92.30;;;;;;5050179;28;20032;-67
2023/06/23 00:31:27;;;;;;;1999.90;999.90;;;21.40;92.70;;;;;;5048272;28;20033;-70
2023/06/23 00:33:56;;;;;;;1999.90;999.90;;;21.50;92.60;;;;;;5045655;28;20032;-68
2023/06/23 00:36:24;;;;;;;1999.90;999.90;;;22.00;92.90;;;;;;5050250;28;20399;-70
2023/06/23 00:38:52;;;;;;;1999.90;999.90;;;22.50;91.00;;;;;;5059939;28;20024;-69
2023/06/23 00:41:19;;;;;;;1999.90;999.90;;;22.30;91.00;;;;;;5057650;28;20491;-70
2023/06/23 00:43:50;;;;;;;1999.90;999.90;;;22.70;91.40;;;;;;5051093;28;20029;-70
2023/06/23 00:46:20;;;;;;;1999.90;999.90;;;23.40;91.30;;;;;;5056561;28;20024;-71
2023/06/23 00:48:48;;;;;;;1999.90;999.90;;;23.70;87.90;;;;;;5054659;28;20024;-70
2023/06/23 00:51:16;;;;;;;1999.90;999.90;;;23.30;88.60;;;;;;5053282;28;20029;-70
2023/06/23 00:53:47;;;;;;;1999.90;999.90;;;23.30;90.10;;;;;;5048829;28;20063;-69
2023/06/23 00:56:18;;;;;;;1999.90;999.90;;;23.20;87.40;;;;;;5046304;28;20044;-73
2023/06/23 00:58:46;;;;;;;1999.90;999.90;;;22.60;89.30;;;;;;5061496;28;20017;-70
2023/06/23 01:01:15;;;;;;;1999.90;999.90;;;22.00;89.70;;;;;;5053352;28;20036;-70
2023/06/23 01:03:43;;;;;;;1999.90;999.90;;;22.00;90.70;;;;;;5055806;28;20059;-71
2023/06/23 01:06:55;;;;;;;1999.90;999.90;;;22.10;88.80;;;;;;5056532;28;20041;-73
2023/06/23 01:10:00;;;;;;;1999.90;999.90;;;22.20;89.40;;;;;;5054475;28;20052;-70
2023/06/23 01:12:48;;;;;;;1999.90;999.90;;;22.50;88.70;;;;;;5049329;28;20116;-72
2023/06/23 01:15:36;;;;;;;1999.90;999.90;;;21.90;89.70;;;;;;5057406;28;20036;-70
2023/06/23 01:18:23;;;;;;;1999.90;999.90;;;22.70;90.00;;;;;;5056611;28;20040;-72
2023/06/23 01:20:53;;;;;;;1999.90;999.90;;;23.00;86.30;;;;;;5030233;28;20460;-71
2023/06/23 01:23:58;;;;;;;1999.90;999.90;;;22.90;84.40;;;;;;5051954;28;20399;-68
2023/06/23 01:26:43;;;;;;;1999.90;999.90;;;22.40;84.30;;;;;;5041585;28;20044;-72
2023/06/23 01:29:11;;;;;;;1999.90;999.90;;;21.70;84.80;;;;;;5050961;28;21197;-73
2023/06/23 01:32:08;;;;;;;1999.90;999.90;;;21.70;86.80;;;;;;5052814;28;20025;-68
2023/06/23 01:34:46;;;;;;;1999.90;999.90;;;21.50;85.70;;;;;;5051219;28;21048;-76
2023/06/23 01:37:24;;;;;;;1999.90;999.90;;;22.20;86.30;;;;;;5051990;28;20045;-72
2023/06/23 01:40:13;;;;;;;1999.90;999.90;;;22.80;85.20;;;;;;5056827;28;20043;-72
2023/06/23 01:42:50;;;;;;;1999.90;999.90;;;23.10;82.50;;;;;;5055636;28;20033;-80
2023/06/23 01:45:21;;;;;;;1999.90;999.90;;;22.80;78.80;;;;;;5060569;28;20495;-71
2023/06/23 01:47:50;;;;;;;1999.90;999.90;;;23.00;80.20;;;;;;5050907;28;20048;-77
2023/06/23 01:50:19;;;;;;;1999.90;999.90;;;23.70;78.70;;;;;;5054567;28;20067;-78
2023/06/23 01:52:51;;;;;;;1999.90;999.90;;;23.70;79.30;;;;;;5044740;28;20498;-70
2023/06/23 01:55:19;;;;;;;1999.90;999.90;;;23.30;79.70;;;;;;5048664;28;20021;-75
2023/06/23 01:57:48;;;;;;;1999.90;999.90;;;23.00;80.90;;;;;;5051306;28;20372;-76
2023/06/23 02:00:18;;;;;;;1999.90;999.90;;;23.90;80.00;;;;;;5044706;28;20040;-78
2023/06/23 02:02:51;;;;;;;1999.90;999.90;;;24.70;79.30;;;;;;5050441;28;20060;-73
2023/06/23 02:05:22;;;;;;;1999.90;999.90;;;24.40;77.50;;;;;;5040973;28;20045;-81
2023/06/23 02:07:52;;;;;;;1999.90;999.90;;;23.60;77.00;;;;;;5053770;28;20083;-71
2023/06/23 02:10:21;;;;;;;1999.90;999.90;;;23.70;77.90;;;;;;5053835;28;20115;-82
2023/06/23 02:12:49;;;;;;;1999.90;999.90;;;24.00;78.00;;;;;;5056683;28;20024;-71
2023/06/23 02:15:19;;;;;;;1999.90;999.90;;;24.20;76.90;;;;;;5055364;28;20112;-70
2023/06/23 02:17:49;;;;;;;1999.90;999.90;;;24.30;77.30;;;;;;5053999;28;20475;-73
2023/06/23 02:20:17;;;;;;;1999.90;999.90;;;24.50;76.30;;;;;;5056883;28;20040;-72
2023/06/23 02:22:49;;;;;;;1999.90;999.90;;;24.40;77.40;;;;;;5052725;28;20037;-70
2023/06/23 02:25:18;;;;;;;1999.90;999.90;;;23.80;76.50;;;;;;5052566;28;20021;-74
2023/06/23 02:27:47;;;;;;;1999.90;999.90;;;23.70;76.50;;;;;;5056195;28;20027;-72
2023/06/23 02:30:17;;;;;;;1999.90;999.90;;;23.40;77.10;;;;;;5059282;28;20046;-74
2023/06/23 02:32:46;;;;;;;1999.90;999.90;;;23.00;78.00;;;;;;5051109;28;20027;-75
2023/06/23 02:35:14;;;;;;;1999.90;999.90;;;23.30;78.60;;;;;;5046635;28;20028;-73
2023/06/23 02:37:46;;;;;;;1999.90;999.90;;;23.70;77.90;;;;;;5049618;28;20035;-72
2023/06/23 02:40:16;;;;;;;1999.90;999.90;;;23.60;76.40;;;;;;5054652;28;20375;-71
2023/06/23 02:43:02;;;;;;;1999.90;999.90;;;23.50;77.20;;;;;;5051357;28;20369;-69
2023/06/23 02:45:31;;;;;;;;;;;22.70;77.40;;;;;;5053613;28;20067;-73
2023/06/23 02:47:59;;;;;;;1999.90;999.90;;;22.60;78.80;;;;;;5053491;28;19928;-73
2023/06/23 02:50:34;;;;;;;1999.90;999.90;;;22.50;78.10;;;;;;5056423;28;20028;-71
2023/06/23 02:53:07;;;;;;;1999.90;999.90;;;22.20;77.60;;;;;;5052314;28;20024;-73
2023/06/23 02:55:44;;;;;;;1999.90;999.90;;;22.00;77.40;;;;;;5057013;28;20505;-73
2023/06/23 02:58:15;;;;;;;1999.90;999.90;;;21.40;77.20;;;;;;5051368;28;20032;-74
2023/06/23 03:00:43;;;;;;;1999.90;999.90;;;20.90;77.90;;;;;;5051418;28;20028;-71
2023/06/23 03:03:16;;;;;;;1999.90;999.90;;;20.50;77.90;;;;;;5049572;28;20506;-71
2023/06/23 03:05:43;;;;;;;1999.90;999.90;;;20.50;79.60;;;;;;5054572;28;20112;-69
2023/06/23 03:08:11;;;;;;;1999.90;999.90;;;20.90;78.80;;;;;;5056597;28;20164;-71
2023/06/23 03:10:39;;;;;;;1999.90;999.90;;;21.00;78.60;;;;;;5045889;28;20523;-73
2023/06/23 03:13:08;;;;;;;1999.90;999.90;;;21.10;79.00;;;;;;5052289;28;20060;-70
2023/06/23 03:15:36;;;;;;;1999.90;999.90;;;21.30;78.10;;;;;;5044251;28;20025;-73
2023/06/23 03:18:16;;;;;;;1999.90;999.90;;;21.30;78.00;;;;;;5050925;28;20082;-74
2023/06/23 03:20:50;;;;;;;1999.90;999.90;;;20.80;78.10;;;;;;5044896;28;20032;-72
2023/06/23 03:23:20;;;;;;;1999.90;999.90;;;20.40;77.60;;;;;;5057609;28;20523;-70
2023/06/23 03:25:49;;;;;;;1999.90;999.90;;;20.00;77.40;;;;;;5048358;28;20280;-69
2023/06/23 03:28:25;;;;;;;1999.90;999.90;;;20.00;78.10;;;;;;5051852;28;20024;-71
2023/06/23 03:30:55;;;;;;;1999.90;999.90;;;19.50;77.20;;;;;;5045789;28;20033;-69
2023/06/23 03:33:41;;;;;;;1999.90;999.90;;;19.30;77.80;;;;;;5053397;28;20029;-68
2023/06/23 03:36:27;;;;;;;1999.90;999.90;;;19.20;78.40;;;;;;5048728;28;20052;-70
2023/06/23 03:39:05;;;;;;;1999.90;999.90;;;19.10;78.70;;;;;;5047581;28;20040;-71
2023/06/23 03:41:33;;;;;;;1999.90;999.90;;;19.00;77.80;;;;;;5043284;28;20048;-69
2023/06/23 03:44:11;;;;;;;1999.90;999.90;;;18.80;78.00;;;;;;5053794;28;20028;-69
2023/06/23 03:46:51;;;;;;;1999.90;999.90;;;18.70;78.00;;;;;;5044860;28;20124;-73
2023/06/23 03:49:21;;;;;;;1999.90;999.90;;;18.70;78.80;;;;;;5046878;28;20041;-74
2023/06/23 03:51:52;;;;;;;1999.90;999.90;;;18.60;78.00;;;;;;5045327;28;20052;-73
2023/06/23 03:54:21;;;;;;;1999.90;999.90;;;18.40;78.00;;;;;;5053733;28;20025;-69
2023/06/23 03:56:49;;;;;;;1999.90;999.90;;;18.40;77.90;;;;;;5049408;28;20068;-72
2023/06/23 03:59:19;;;;;;;1999.90;999.90;;;18.40;79.30;;;;;;5048652;28;21628;-73
2023/06/23 04:01:48;;;;;;;1999.90;999.90;;;18.30;79.20;;;;;;5048435;28;20029;-69
2023/06/23 04:04:19;;;;;;;1999.90;999.90;;;18.30;78.10;;;;;;5045630;28;20459;-80
2023/06/23 04:06:49;;;;;;;1999.90;999.90;;;18.20;79.10;;;;;;5050721;28;20032;-78
2023/06/23 04:09:19;;;;;;;1999.90;999.90;;;18.20;79.20;;;;;;5057134;28;21381;-75
2023/06/23 04:11:48;;;;;;;1999.90;999.90;;;18.20;78.70;;;;;;5051001;28;20083;-73
2023/06/23 04:14:21;;;;;;;1999.90;999.90;;;18.20;79.40;;;;;;5051888;28;20024;-76
2023/06/23 04:16:51;;;;;;;1999.90;999.90;;;18.20;80.10;;;;;;5051734;28;20032;-71
2023/06/23 04:19:21;;;;;;;1999.90;999.90;;;18.20;79.50;;;;;;5061357;28;20047;-73
2023/06/23 04:21:49;;;;;;;1999.90;999.90;;;18.10;78.80;;;;;;5059273;28;20051;-76
2023/06/23 04:24:18;;;;;;;1999.90;999.90;;;18.10;79.80;;;;;;5058651;28;20029;-73
2023/06/23 04:26:48;;;;;;;1999.90;999.90;;;18.10;78.30;;;;;;5061374;28;20025;-70
2023/06/23 04:29:17;;;;;;;1999.90;999.90;;;18.00;78.90;;;;;;5057200;28;20037;-69
2023/06/23 04:31:47;;;;;;;1999.90;999.90;;;17.90;79.80;;;;;;5058031;28;20040;-70
2023/06/23 04:34:15;;;;;;;1999.90;999.90;;;18.00;80.00;;;;;;5051266;28;20383;-76
2023/06/23 04:36:55;;;;;;;1999.90;999.90;;;17.90;80.40;;;;;;5057685;28;20493;-79
2023/06/23 04:39:30;;;;;;;1999.90;999.90;;;17.90;80.30;;;;;;5058161;28;20112;-77
2023/06/23 04:42:02;;;;;;;1999.90;999.90;;;17.90;80.20;;;;;;5057827;28;20039;-70
2023/06/23 04:44:33;;;;;;;1999.90;999.90;;;17.80;79.70;;;;;;5056162;28;20021;-75
2023/06/23 04:47:03;;;;;;;1999.90;999.90;;;17.80;80.20;;;;;;5051193;28;20033;-78
2023/06/23 04:49:34;;;;;;;1999.90;999.90;;;17.80;80.60;;;;;;5057753;28;20025;-80
2023/06/23 04:52:05;;;;;;;1999.90;999.90;;;17.80;79.90;;;;;;5052085;28;20112;-78
2023/06/23 04:54:44;;;;;;;1999.90;999.90;;;17.70;80.70;;;;;;5054993;28;20539;-69
2023/06/23 04:57:16;;;;;;;1999.90;999.90;;;17.80;80.00;;;;;;5055575;28;20119;-81
2023/06/23 04:59:47;;;;;;;1999.90;999.90;;;17.80;80.90;;;;;;5054890;28;20025;-71
2023/06/23 05:02:16;;;;;;;1999.90;999.90;;;17.80;81.10;;;;;;5053196;28;20025;-78
2023/06/23 05:04:46;;;;;;;1999.90;999.90;;;17.70;81.00;;;;;;5052037;28;20105;-73
2023/06/23 05:07:16;;;;;;;1999.90;999.90;;;17.70;81.30;;;;;;5055930;28;20123;-81
2023/06/23 05:09:47;;;;;;;1999.90;999.90;;;17.70;81.30;;;;;;5055251;28;20529;-72
2023/06/23 05:12:17;;;;;;;1999.90;999.90;;;17.60;81.90;;;;;;5053409;28;20024;-69
2023/06/23 05:14:48;;;;;;;1999.90;999.90;;;17.60;81.40;;;;;;5055162;28;20059;-72
2023/06/23 05:17:17;;;;;;;1999.90;999.90;;;17.60;81.30;;;;;;5050788;28;20114;-69
2023/06/23 05:19:47;;;;;;;1999.90;999.90;;;17.60;82.30;;;;;;5059027;28;20017;-75
2023/06/23 05:22:19;;;;;;;1999.90;999.90;;;17.50;82.80;;;;;;5056492;28;20028;-77
2023/06/23 05:24:55;;;;;;;1999.90;999.90;;;17.60;82.40;;;;;;5058025;28;20074;-71
2023/06/23 05:27:26;;;;;;;1999.90;999.90;;;17.60;82.70;;;;;;5054318;28;20029;-72
2023/06/23 05:29:57;;;;;;;1999.90;999.90;;;17.50;82.30;;;;;;5054898;28;20090;-74
2023/06/23 05:32:28;;;;;;;1999.90;999.90;;;17.40;81.90;;;;;;5049577;28;20040;-73
2023/06/23 05:34:59;;;;;;;1999.90;999.90;;;17.40;82.50;;;;;;5051772;28;20033;-70
2023/06/23 05:37:29;;;;;;;1999.90;999.90;;;17.40;82.50;;;;;;5058843;28;20543;-72
2023/06/23 05:39:58;;;;;;;1999.90;999.90;;;17.40;82.20;;;;;;5058255;28;20048;-73
2023/06/23 05:42:27;;;;;;;1999.90;999.90;;;17.50;81.70;;;;;;5055145;28;20025;-77
2023/06/23 05:44:54;;;;;;;1999.90;999.90;;;17.50;82.20;;;;;;5044876;28;20107;-75
2023/06/23 05:47:25;;;;;;;1999.90;999.90;;;17.40;82.50;;;;;;5057741;28;20387;-71
2023/06/23 05:49:55;;;;;;;1999.90;999.90;;;17.40;82.70;;;;;;5045610;28;20040;-73
2023/06/23 05:52:23;;;;;;;1999.90;999.90;;;17.40;81.50;;;;;;5050166;28;20025;-71
2023/06/23 05:54:55;;;;;;;1999.90;999.90;;;17.40;81.40;;;;;;5053681;28;20029;-72
2023/06/23 05:57:28;;;;;;;1999.90;999.90;;;17.30;81.20;;;;;;5053310;28;20056;-71
2023/06/23 06:00:14;;;;;;;1999.90;999.90;;;17.30;81.90;;;;;;5056459;28;20032;-72
2023/06/23 06:02:44;;;;;;;;;;;17.20;81.60;;;;;;5051310;28;20032;-75
2023/06/23 06:05:16;;;;;;;1999.90;999.90;;;17.20;81.50;;;;;;5053740;28;19924;-78
2023/06/23 06:07:45;;;;;;;1999.90;999.90;;;17.20;81.80;;;;;;5044942;28;20136;-76
2023/06/23 06:10:14;;;;;;;1999.90;999.90;;;17.20;81.30;;;;;;5060789;28;20157;-73
2023/06/23 06:12:45;;;;;;;1999.90;999.90;;;17.20;81.60;;;;;;5060264;28;20194;-70
2023/06/23 06:15:14;;;;;;;1999.90;999.90;;;17.20;81.60;;;;;;5060056;28;20035;-69
2023/06/23 06:17:43;;;;;;;1999.90;999.90;;;17.20;82.30;;;;;;5059081;28;20037;-70
2023/06/23 06:20:13;;;;;;;1999.90;999.90;;;17.10;82.10;;;;;;5057020;28;20033;-71
2023/06/23 06:22:42;;;;;;;1999.90;999.90;;;17.10;81.30;;;;;;5057139;28;20112;-72
2023/06/23 06:25:11;;;;;;;1999.90;999.90;;;17.00;82.00;;;;;;5054164;28;20514;-74
2023/06/23 06:27:41;;;;;;;1999.90;999.90;;;17.00;82.40;;;;;;5055306;28;20125;-73
2023/06/23 06:30:10;;;;;;;1999.90;999.90;;;16.90;82.30;;;;;;5053705;28;20025;-75
2023/06/23 06:32:40;;;;;;;1999.90;999.90;;;16.90;82.40;;;;;;5054112;28;21542;-72
2023/06/23 06:35:11;;;;;;;1999.90;999.90;;;16.70;82.90;;;;;;5062060;28;20070;-74
2023/06/23 06:37:47;;;;;;;1999.90;999.90;;;16.60;83.60;;;;;;5053098;28;20098;-71
2023/06/23 06:40:19;;;;;;;1999.90;999.90;;;16.50;83.40;;;;;;5055586;28;20029;-72
2023/06/23 06:42:46;;;;;;;1999.90;999.90;;;16.40;84.20;;;;;;5059800;28;20028;-70
2023/06/23 06:45:13;;;;;;;1999.90;999.90;;;16.30;83.90;;;;;;5058857;28;20032;-74
2023/06/23 06:47:44;;;;;;;1999.90;999.90;;;16.20;84.30;;;;;;5049820;28;20028;-76
2023/06/23 06:50:14;;;;;;;1999.90;999.90;;;16.10;83.80;;;;;;5044776;28;20037;-73
2023/06/23 06:52:45;;;;;;;1999.90;999.90;;;16.00;84.50;;;;;;5051285;28;20480;-73
2023/06/23 06:55:20;;;;;;;1999.90;999.90;;;16.00;84.60;;;;;;5044837;28;20044;-69
2023/06/23 06:57:49;;;;;;;1999.90;999.90;;;15.90;84.90;;;;;;5048359;28;20025;-71
2023/06/23 07:00:22;;;;;;;1999.90;999.90;;;15.80;85.10;;;;;;5056528;28;20372;-75
2023/06/23 07:02:50;;;;;;;1999.90;999.90;;;15.70;85.00;;;;;;5051103;28;20144;-75
2023/06/23 07:05:17;;;;;;;1999.90;999.90;;;15.70;85.70;;;;;;5050563;28;20552;-75
2023/06/23 07:07:46;;;;;;;1999.90;999.90;;;15.50;86.20;;;;;;5047253;28;20507;-71
2023/06/23 07:10:13;;;;;;;1999.90;999.90;;;15.40;85.90;;;;;;5047340;28;20079;-72
2023/06/23 07:12:41;;;;;;;1999.90;999.90;;;15.40;86.40;;;;;;5055166;28;20031;-71
2023/06/23 07:15:08;;;;;;;1999.90;999.90;;;15.40;86.20;;;;;;5062371;28;20503;-69
2023/06/23 07:17:35;;;;;;;1999.90;999.90;;;15.30;86.50;;;;;;5048590;28;21559;-70
2023/06/23 07:20:03;;;;;;;1999.90;999.90;;;15.30;86.90;;;;;;5060501;28;20514;-70
2023/06/23 07:22:33;;;;;;;1999.90;999.90;;;15.20;87.20;;;;;;5057595;28;20070;-69
2023/06/23 07:25:01;;;;;;;1999.90;999.90;;;15.10;87.50;;;;;;5056818;28;20104;-71
2023/06/23 07:27:28;;;;;;;1999.90;999.90;;;15.10;87.30;;;;;;5057022;28;20044;-69
2023/06/23 07:29:55;;;;;;;1999.90;999.90;;;15.10;87.30;;;;;;5053352;28;20033;-70
2023/06/23 07:32:23;;;;;;;1999.90;999.90;;;15.10;87.60;;;;;;5052920;28;20033;-70
2023/06/23 07:34:51;;;;;;;1999.90;999.90;;;15.10;87.80;;;;;;5055521;28;20142;-75
2023/06/23 07:37:19;;;;;;;1999.90;999.90;;;15.00;88.20;;;;;;5048008;28;20033;-69
2023/06/23 07:39:46;;;;;;;1999.90;999.90;;;14.90;88.50;;;;;;5050705;28;20063;-71
2023/06/23 07:42:14;;;;;;;1999.90;999.90;;;14.80;88.60;;;;;;5057431;28;20052;-70
2023/06/23 07:44:41;;;;;;;1999.90;999.90;;;14.80;88.80;;;;;;5051406;28;20116;-73
2023/06/23 07:47:09;;;;;;;1999.90;999.90;;;14.80;88.80;;;;;;5052096;28;20028;-70
2023/06/23 07:49:36;;;;;;;1999.90;999.90;;;14.80;88.70;;;;;;5058303;28;20037;-70
2023/06/23 07:52:04;;;;;;;1999.90;999.90;;;14.80;89.20;;;;;;5049345;28;20043;-70
2023/06/23 07:54:32;;;;;;;1999.90;999.90;;;14.70;89.40;;;;;;5056804;28;20049;-73
2023/06/23 07:57:01;;;;;;;1999.90;999.90;;;14.60;89.80;;;;;;5050280;28;20046;-70
2023/06/23 07:59:28;;;;;;;1999.90;999.90;;;14.60;90.00;;;;;;5053966;28;20483;-71
2023/06/23 08:01:56;;;;;;;1999.90;999.90;;;14.60;90.10;;;;;;5056533;28;20112;-72
2023/06/23 08:04:23;;;;;;;1999.90;999.90;;;14.60;90.20;;;;;;5051208;28;20048;-71
2023/06/23 08:06:51;;;;;;;1999.90;999.90;;;14.50;90.30;;;;;;5056078;28;20028;-73
2023/06/23 08:09:19;;;;;;;1999.90;999.90;;;14.40;90.40;;;;;;5046370;28;20044;-74
2023/06/23 08:11:46;;;;;;;1999.90;999.90;;;14.30;90.70;;;;;;5056020;28;20041;-73
2023/06/23 08:14:14;;;;;;;1999.90;999.90;;;14.40;90.60;;;;;;5055289;28;20369;-74
2023/06/23 08:16:41;;;;;;;1999.90;999.90;;;14.40;90.60;;;;;;5056515;28;20032;-72
2023/06/23 08:19:08;;;;;;;1999.90;999.90;;;14.40;90.60;;;;;;5054781;28;20047;-73
2023/06/23 08:21:36;;;;;;;1999.90;999.90;;;14.30;90.60;;;;;;5058140;28;20024;-70
2023/06/23 08:24:03;;;;;;;1999.90;999.90;;;14.30;90.70;;;;;;5052969;28;20082;-70
2023/06/23 08:26:30;;;;;;;1999.90;999.90;;;14.30;90.70;;;;;;5048430;28;20104;-72
2023/06/23 08:28:58;;;;;;;1999.90;999.90;;;14.20;90.70;;;;;;5054440;28;20035;-69
2023/06/23 08:31:25;;;;;;;1999.90;999.90;;;14.20;90.60;;;;;;5050047;28;20029;-70
2023/06/23 08:33:52;;;;;;;1999.90;999.90;;;14.20;90.70;;;;;;5049047;28;20908;-71
2023/06/23 08:36:20;;;;;;;1999.90;999.90;;;14.20;90.80;;;;;;5048384;28;20028;-75
2023/06/23 08:38:48;;;;;;;1999.90;999.90;;;14.20;90.80;;;;;;5049214;28;20480;-72
2023/06/23 08:41:18;;;;;;;1999.90;999.90;;;14.10;90.80;;;;;;5048639;28;20491;-74
2023/06/23 08:43:48;;;;;;;1999.90;999.90;;;14.20;90.80;;;;;;5051562;28;20032;-71
2023/06/23 08:46:16;;;;;;;1999.90;999.90;;;14.20;90.80;;;;;;5048910;28;20114;-69
2023/06/23 08:48:50;;;;;;;1999.90;999.90;;;14.10;90.80;;;;;;5045122;28;20139;-73
2023/06/23 08:51:18;;;;;;;1999.90;999.90;;;14.10;91.00;;;;;;5055863;28;20380;-72
2023/06/23 08:53:46;;;;;;;1999.90;999.90;;;14.00;91.10;;;;;;5056939;28;20032;-72
2023/06/23 08:56:14;;;;;;;1999.90;999.90;;;14.00;91.10;;;;;;5052378;28;20029;-69
2023/06/23 08:58:42;;;;;;;1999.90;999.90;;;13.90;91.20;;;;;;5061937;28;20495;-70
2023/06/23 09:01:09;;;;;;;1999.90;999.90;;;13.80;91.20;;;;;;5049505;28;20029;-68
2023/06/23 09:03:36;;;;;;;1999.90;999.90;;;13.80;91.40;;;;;;5059022;28;20448;-69
2023/06/23 09:06:04;;;;;;;1999.90;999.90;;;13.80;91.30;;;;;;5046595;28;20032;-68
2023/06/23 09:08:32;;;;;;;1999.90;999.90;;;13.70;91.40;;;;;;5059148;28;20056;-71
2023/06/23 09:10:59;;;;;;;1999.90;999.90;;;13.70;91.50;;;;;;5051891;28;20029;-72
2023/06/23 09:13:47;;;;;;;1999.90;999.90;;;13.60;91.70;;;;;;5061855;28;20028;-75
2023/06/23 09:16:16;;;;;;;1999.90;999.90;;;13.60;91.80;;;;;;5055566;28;20046;-70
2023/06/23 09:18:47;;;;;;;1999.90;999.90;;;13.60;91.80;;;;;;5061684;28;20029;-70
2023/06/23 09:21:15;;;;;;;1999.90;999.90;;;13.60;91.90;;;;;;5057159;28;20021;-73
2023/06/23 09:24:03;;;;;;;1999.90;999.90;;;13.60;91.90;;;;;;5060282;28;20080;-72
2023/06/23 09:26:55;;;;;;;1999.90;999.90;;;13.60;92.00;;;;;;5058732;28;20471;-73
2023/06/23 09:29:26;;;;;;;1999.90;999.90;;;13.60;92.10;;;;;;5060344;28;20037;-70
2023/06/23 09:31:55;;;;;;;1999.90;999.90;;;13.70;92.00;;;;;;5059713;28;20021;-70
2023/06/23 09:34:31;;;;;;;1999.90;999.90;;;13.70;92.00;;;;;;5056631;28;20041;-70
2023/06/23 09:37:13;;;;;;;1999.90;999.90;;;13.70;92.00;;;;;;5058628;28;20434;-73
2023/06/23 09:39:48;;;;;;;1999.90;999.90;;;13.70;92.10;;;;;;5056203;28;20384;-69
2023/06/23 09:42:16;;;;;;;1999.90;999.90;;;13.70;92.10;;;;;;5049639;28;20025;-74
2023/06/23 09:44:45;;;;;;;1999.90;999.90;;;13.80;92.00;;;;;;5050103;28;20371;-71
2023/06/23 09:47:16;;;;;;;1999.90;999.90;;;13.80;92.00;;;;;;5056440;28;20037;-69
2023/06/23 09:49:47;;;;;;;1999.90;999.90;;;13.80;92.10;;;;;;5061132;28;20017;-68
2023/06/23 09:52:26;;;;;;;1999.90;999.90;;;13.80;92.10;;;;;;5051549;28;20064;-70
2023/06/23 09:54:54;;;;;;;1999.90;999.90;;;13.80;92.10;;;;;;5051429;28;20796;-70
2023/06/23 09:57:22;;;;;;;1999.90;999.90;;;13.80;92.20;;;;;;5060752;28;20041;-69
2023/06/23 09:59:54;;;;;;;1999.90;999.90;;;13.70;92.40;;;;;;5056425;28;20025;-76
2023/06/23 10:02:26;;;;;;;1999.90;999.90;;;13.60;92.70;;;;;;5051454;28;20464;-69
2023/06/23 10:05:05;;;;;;;1999.90;999.90;;;13.70;92.50;;;;;;5055121;28;20070;-70
2023/06/23 10:07:33;;;;;;;1999.90;999.90;;;13.60;92.60;;;;;;5064713;28;20063;-70
2023/06/23 10:10:07;;;;;;;1999.90;999.90;;;13.50;92.80;;;;;;5056862;28;20033;-77
2023/06/23 10:12:37;;;;;;;1999.90;999.90;;;13.40;92.90;;;;;;5051982;28;20143;-71
2023/06/23 10:15:07;;;;;;;1999.90;999.90;;;13.50;93.00;;;;;;5055930;28;20037;-71
2023/06/23 10:17:34;;;;;;;1999.90;999.90;;;13.50;93.00;;;;;;5051785;28;20120;-73
2023/06/23 10:20:04;;;;;;;1999.90;999.90;;;13.50;92.90;;;;;;5058691;28;20074;-70
2023/06/23 10:22:33;;;;;;;1999.90;999.90;;;13.40;93.10;;;;;;5052424;28;20074;-73
2023/06/23 10:25:01;;;;;;;1999.90;999.90;;;13.40;93.10;;;;;;5053295;28;20028;-71
2023/06/23 10:27:30;;;;;;;1999.90;999.90;;;13.40;93.10;;;;;;5048616;28;20032;-70
2023/06/23 10:29:59;;;;;;;1999.90;999.90;;;13.40;93.20;;;;;;5056244;28;20078;-70
2023/06/23 10:32:33;;;;;;;1999.90;999.90;;;13.30;93.20;;;;;;5056560;28;20033;-70
2023/06/23 10:35:08;;;;;;;1999.90;999.90;;;13.40;93.10;;;;;;5054192;28;20108;-74
2023/06/23 10:37:36;;;;;;;1999.90;999.90;;;13.40;93.00;;;;;;5056855;28;20159;-69
2023/06/23 10:40:05;;;;;;;1999.90;999.90;;;13.40;93.00;;;;;;5056042;28;20032;-71
2023/06/23 10:42:37;;;;;;;1999.90;999.90;;;13.30;93.20;;;;;;5053615;28;20036;-70
2023/06/23 10:45:04;;;;;;;1999.90;999.90;;;13.40;93.10;;;;;;5068207;28;20073;-71
2023/06/23 10:47:32;;;;;;;1999.90;999.90;;;13.40;93.00;;;;;;5055165;28;20025;-71
2023/06/23 10:49:59;;;;;;;1999.90;999.90;;;13.40;93.00;;;;;;5055453;28;20078;-74
2023/06/23 10:52:28;;;;;;;1999.90;999.90;;;13.40;93.10;;;;;;5053190;28;20033;-77
2023/06/23 10:54:55;;;;;;;1999.90;999.90;;;13.40;93.10;;;;;;5054536;28;20025;-70
2023/06/23 10:57:23;;;;;;;1999.90;999.90;;;13.40;93.00;;;;;;5055320;28;20040;-71
2023/06/23 11:00:06;;;;;;;1999.90;999.90;;;13.50;92.90;;;;;;5058173;28;20032;-71
2023/06/23 11:02:52;;;;;;;1999.90;999.90;;;13.50;93.20;;;;;;5053421;28;20051;-71
2023/06/23 11:05:20;;;;;;;1999.90;999.90;;;13.60;93.10;;;;;;5055302;28;20094;-71
2023/06/23 11:08:11;;;;;;;1999.90;999.90;;;13.60;93.00;;;;;;5057570;28;20087;-71
2023/06/23 11:10:59;;;;;;;1999.90;999.90;;;13.60;93.40;;;;;;5049219;28;20040;-74
2023/06/23 11:13:37;;;;;;;1999.90;999.90;;;13.40;93.40;;;;;;5057890;28;20025;-69
2023/06/23 11:16:05;;;;;;;1999.90;999.90;;;13.40;93.50;;;;;;5054284;28;20361;-71
2023/06/23 11:18:33;;;;;;;1999.90;999.90;;;13.30;93.60;;;;;;5058777;28;20032;-70
2023/06/23 11:21:16;;;;;;;1999.90;999.90;;;13.30;93.70;;;;;;5054827;28;20020;-70
2023/06/23 11:24:11;;;;;;;1999.90;999.90;;;13.40;93.60;;;;;;5054491;28;20585;-69
2023/06/23 11:27:02;;;;;;;1999.90;999.90;;;13.50;93.60;;;;;;5065835;28;20044;-70
2023/06/23 11:29:31;;;;;;;1999.90;999.90;;;13.40;93.70;;;;;;5045865;28;20473;-71
2023/06/23 11:32:06;;;;;;;1999.90;999.90;;;13.30;93.80;;;;;;5049955;28;20035;-71
2023/06/23 11:35:01;;;;;;;1999.90;999.90;;;13.20;93.80;;;;;;5057904;28;20520;-72
2023/06/23 11:37:39;;;;;;;1999.90;999.90;;;13.30;93.90;;;;;;5052012;28;20052;-69
2023/06/23 11:40:08;;;;;;;1999.90;999.90;;;13.30;94.00;;;;;;5057587;28;20029;-72
2023/06/23 11:42:38;;;;;;;1999.90;999.90;;;13.20;94.00;;;;;;5047504;28;20730;-70
2023/06/23 11:45:08;;;;;;;1999.90;999.90;;;13.20;94.10;;;;;;5057617;28;20029;-75
2023/06/23 11:47:37;;;;;;;1999.90;999.90;;;13.20;94.20;;;;;;5050305;28;20116;-72
2023/06/23 11:50:10;;;;;;;1999.90;999.90;;;13.20;94.20;;;;;;5056317;28;20028;-72
2023/06/23 11:52:38;;;;;;;1999.90;999.90;;;13.30;93.90;;;;;;5056041;28;20035;-70
2023/06/23 11:55:05;;;;;;;1999.90;999.90;;;13.30;93.90;;;;;;5051904;28;20032;-75
2023/06/23 11:57:33;;;;;;;1999.90;999.90;;;13.40;93.70;;;;;;5050923;28;20059;-73
2023/06/23 12:00:00;;;;;;;1999.90;999.90;;;13.50;93.70;;;;;;5050449;28;20025;-76
2023/06/23 12:02:28;;;;;;;1999.90;999.90;;;13.50;93.60;;;;;;5045786;28;20032;-70
2023/06/23 12:04:59;;;;;;;1999.90;999.90;;;13.50;93.50;;;;;;5050500;28;20051;-69
2023/06/23 12:07:31;;;;;;;1999.90;999.90;;;13.50;93.60;;;;;;5047392;28;20071;-70
2023/06/23 12:10:01;;;;;;;1999.90;999.90;;;13.50;93.80;;;;;;5051147;28;20483;-71
2023/06/23 12:12:29;;;;;;;1999.90;999.90;;;13.40;93.80;;;;;;5046698;28;20053;-71
2023/06/23 12:15:00;;;;;;;1999.90;999.90;;;13.40;93.90;;;;;;5048654;28;20532;-69
2023/06/23 12:17:27;;;;;;;1999.90;999.90;;;13.50;93.80;;;;;;5049216;28;20040;-70
2023/06/23 12:19:55;;;;;;;1999.90;999.90;;;13.50;93.70;;;;;;5060040;28;20095;-70
2023/06/23 12:22:22;;;;;;;1999.90;999.90;;;13.60;93.70;;;;;;5058242;28;20048;-71